Terminal Aerodrome Forecast
Issued by NWS

Home | Current Version | Previous Version | Graphics & Text | Print | Product List | Glossary On
Versions: 1 2 3 4 5 6 7 8 9 10 11 12
000
FTUS43 KMPX 111100
TAFAXN
TAF
KAXN 111131Z 1112/1212 18011KT P6SM BKN025 BKN035
     FM111600 19012KT P6SM BKN030 OVC060
     FM111900 22009KT P6SM VCSH SCT035 BKN060
      TEMPO 1119/1122 -TSRA BKN035CB
     FM120000 34005KT P6SM SCT250=

USA.gov is the U.S. government's official web portal to all federal, state and local government web resources and services.